Time;durP1;ratioP1;P1;durP2;ratioP2;P2;SDS_P1;SDS_P2;PMS_P1;PMS_P2;Temp;Humidity;BMP_temperature;BMP_pressure;BME280_temperature;BME280_humidity;BME280_pressure;Samples;Min_cycle;Max_cycle;Signal;HPM_P1;HPM_P2
2024/03/19 00:00:16;;;;;;;3.17;2.78;;;18.80;57.10;;;;;;5040289;28;20045;-57
2024/03/19 00:02:42;;;;;;;3.33;2.60;;;18.90;57.20;;;;;;5041047;28;20032;-58
2024/03/19 00:05:08;;;;;;;4.90;2.70;;;18.90;57.20;;;;;;5037060;28;20029;-55
2024/03/19 00:07:33;;;;;;;3.90;2.50;;;18.90;57.10;;;;;;5036014;28;20044;-59
2024/03/19 00:09:59;;;;;;;4.22;2.65;;;18.90;57.10;;;;;;5038224;28;21358;-59
2024/03/19 00:12:24;;;;;;;4.05;2.95;;;18.90;57.10;;;;;;5038380;28;20322;-57
2024/03/19 00:14:52;;;;;;;3.22;2.58;;;18.90;57.20;;;;;;5036115;28;20040;-58
2024/03/19 00:17:18;;;;;;;3.45;2.72;;;18.90;57.10;;;;;;5039234;28;20029;-57
2024/03/19 00:19:43;;;;;;;2.58;2.08;;;18.90;57.10;;;;;;5039474;28;20036;-58
2024/03/19 00:22:09;;;;;;;4.00;2.83;;;18.90;57.10;;;;;;5038275;28;20040;-55
2024/03/19 00:24:34;;;;;;;3.17;2.20;;;18.90;57.10;;;;;;5038810;28;21580;-57
2024/03/19 00:27:01;;;;;;;3.08;2.40;;;18.90;57.10;;;;;;5039342;28;20036;-56
2024/03/19 00:29:27;;;;;;;2.85;2.55;;;18.90;57.10;;;;;;5037979;28;20120;-58
2024/03/19 00:31:53;;;;;;;4.00;2.83;;;18.90;57.10;;;;;;5038280;28;20156;-55
2024/03/19 00:34:18;;;;;;;3.58;2.45;;;18.90;57.10;;;;;;5036880;28;20043;-58
2024/03/19 00:36:44;;;;;;;3.63;2.50;;;18.90;57.10;;;;;;5040908;28;20033;-57
2024/03/19 00:39:10;;;;;;;3.15;2.30;;;18.90;57.20;;;;;;5039064;28;20375;-54
2024/03/19 00:41:37;;;;;;;3.00;2.38;;;18.80;57.10;;;;;;5037555;28;20490;-56
2024/03/19 00:44:04;;;;;;;3.28;2.33;;;18.90;57.10;;;;;;5038806;28;22590;-57
2024/03/19 00:46:30;;;;;;;3.35;2.45;;;18.80;57.10;;;;;;5040446;28;20025;-58
2024/03/19 00:48:55;;;;;;;3.53;2.42;;;18.90;57.10;;;;;;5040275;28;20464;-57
2024/03/19 00:51:21;;;;;;;3.15;2.08;;;18.90;57.10;;;;;;5037916;28;20025;-56
2024/03/19 00:53:46;;;;;;;2.60;2.20;;;18.90;57.10;;;;;;5039434;28;20055;-59
2024/03/19 00:56:12;;;;;;;2.88;2.28;;;18.90;57.10;;;;;;5035496;28;20029;-58
2024/03/19 00:58:37;;;;;;;2.13;1.77;;;18.80;57.10;;;;;;5039726;28;20478;-55
2024/03/19 01:01:03;;;;;;;3.67;2.67;;;18.80;57.00;;;;;;5036712;28;20040;-55
2024/03/19 01:03:29;;;;;;;2.78;2.15;;;18.80;57.10;;;;;;5033713;28;20026;-55
2024/03/19 01:05:54;;;;;;;2.63;2.38;;;18.80;57.10;;;;;;5035243;28;20029;-56
2024/03/19 01:08:20;;;;;;;7.53;2.90;;;18.80;57.10;;;;;;5035783;28;20511;-58
2024/03/19 01:10:46;;;;;;;3.10;2.55;;;18.80;57.20;;;;;;5037708;28;20056;-58
2024/03/19 01:13:11;;;;;;;3.17;2.08;;;18.70;57.30;;;;;;5035072;28;20037;-57
2024/03/19 01:15:37;;;;;;;2.88;2.10;;;18.70;57.40;;;;;;5037063;28;20036;-55
2024/03/19 01:18:04;;;;;;;2.90;2.03;;;18.70;57.40;;;;;;5036880;28;22282;-56
2024/03/19 01:20:31;;;;;;;2.65;1.75;;;18.70;57.50;;;;;;5037954;28;20042;-55
2024/03/19 01:22:58;;;;;;;2.35;2.15;;;18.60;57.50;;;;;;5036368;28;20491;-55
2024/03/19 01:25:24;;;;;;;2.35;2.15;;;18.60;57.60;;;;;;5038406;28;20033;-55
2024/03/19 01:27:51;;;;;;;2.97;2.22;;;18.50;57.60;;;;;;5036833;28;20032;-57
2024/03/19 01:30:16;;;;;;;2.25;2.05;;;18.50;57.70;;;;;;5037525;28;20089;-58
2024/03/19 01:32:42;;;;;;;2.80;1.85;;;18.50;57.60;;;;;;5034615;28;20077;-57
2024/03/19 01:35:08;;;;;;;3.15;2.25;;;18.50;57.80;;;;;;5036432;28;20036;-57
2024/03/19 01:37:34;;;;;;;2.47;1.83;;;18.50;57.70;;;;;;5035640;28;20725;-58
2024/03/19 01:40:00;;;;;;;2.20;2.00;;;18.50;57.80;;;;;;5037685;28;20065;-59
2024/03/19 01:42:25;;;;;;;2.58;2.10;;;18.40;57.80;;;;;;5034091;28;20029;-57
2024/03/19 01:45:10;;;;;;;2.75;1.90;;;18.40;57.80;;;;;;5036635;28;20494;-54
2024/03/19 01:47:35;;;;;;;3.35;2.65;;;18.40;57.70;;;;;;5033896;28;20080;-57
2024/03/19 01:50:06;;;;;;;2.30;1.85;;;18.40;57.70;;;;;;5036825;28;20029;-56
2024/03/19 01:52:34;;;;;;;2.80;2.05;;;18.50;57.50;;;;;;5035628;28;20448;-58
2024/03/19 01:55:00;;;;;;;2.47;2.00;;;18.50;57.40;;;;;;5039665;28;20040;-57
2024/03/19 01:57:26;;;;;;;3.70;2.20;;;18.50;57.30;;;;;;5033372;28;20106;-58
2024/03/19 01:59:52;;;;;;;2.05;1.65;;;18.60;57.20;;;;;;5038414;28;20560;-58
2024/03/19 02:02:36;;;;;;;3.03;2.00;;;18.60;57.00;;;;;;5036091;28;20041;-58
2024/03/19 02:05:07;;;;;;;2.17;1.67;;;18.70;56.90;;;;;;5034187;28;20037;-57
2024/03/19 02:07:33;;;;;;;2.13;1.65;;;18.80;56.80;;;;;;5031984;28;20497;-56
2024/03/19 02:09:59;;;;;;;3.03;1.90;;;18.80;56.70;;;;;;5038716;28;20036;-58
2024/03/19 02:12:25;;;;;;;2.08;1.85;;;18.90;56.60;;;;;;5033495;28;21667;-56
2024/03/19 02:14:51;;;;;;;1.95;1.75;;;19.00;56.40;;;;;;5038317;28;20037;-59
2024/03/19 02:17:18;;;;;;;2.35;1.90;;;19.00;56.20;;;;;;5036293;28;20124;-58
2024/03/19 02:19:44;;;;;;;2.22;1.70;;;19.10;56.20;;;;;;5036412;28;20085;-57
2024/03/19 02:22:10;;;;;;;2.55;1.75;;;19.10;56.10;;;;;;5036045;28;20512;-57
2024/03/19 02:24:41;;;;;;;1.92;1.63;;;19.20;56.10;;;;;;5035921;28;20547;-58
2024/03/19 02:27:07;;;;;;;1.80;1.50;;;19.20;56.00;;;;;;5029817;28;20482;-57
2024/03/19 02:29:32;;;;;;;1.60;1.50;;;19.20;55.90;;;;;;5036916;28;20044;-57
2024/03/19 02:31:59;;;;;;;3.03;2.05;;;19.30;55.90;;;;;;5036456;28;20724;-57
2024/03/19 02:34:25;;;;;;;3.00;1.80;;;19.30;55.80;;;;;;5036149;28;20497;-57
2024/03/19 02:36:51;;;;;;;2.05;1.60;;;19.30;55.70;;;;;;5035209;28;20028;-56
2024/03/19 02:39:16;;;;;;;2.78;1.98;;;19.40;55.70;;;;;;5034878;28;20379;-56
2024/03/19 02:41:42;;;;;;;2.40;1.98;;;19.40;55.70;;;;;;5036096;28;20049;-56
2024/03/19 02:44:07;;;;;;;2.38;1.80;;;19.40;55.60;;;;;;5037506;28;20025;-58
2024/03/19 02:46:33;;;;;;;2.33;1.88;;;19.50;55.70;;;;;;5036707;28;21135;-58
2024/03/19 02:48:58;;;;;;;2.15;1.70;;;19.40;55.60;;;;;;5035350;28;20044;-56
2024/03/19 02:51:24;;;;;;;1.90;1.60;;;19.50;55.60;;;;;;5036135;28;20033;-57
2024/03/19 02:53:50;;;;;;;2.28;1.65;;;19.50;55.60;;;;;;5035093;28;20049;-57
2024/03/19 02:56:16;;;;;;;1.60;1.50;;;19.50;55.70;;;;;;5034667;28;20479;-58
2024/03/19 02:58:41;;;;;;;2.00;1.48;;;19.50;55.70;;;;;;5036886;28;20036;-56
2024/03/19 03:01:07;;;;;;;1.90;1.70;;;19.40;55.70;;;;;;5029060;28;20051;-61
2024/03/19 03:03:33;;;;;;;2.13;1.58;;;19.40;55.70;;;;;;5024450;28;20441;-56
2024/03/19 03:05:59;;;;;;;1.55;1.38;;;19.40;55.80;;;;;;5034425;28;20441;-56
2024/03/19 03:08:26;;;;;;;2.25;1.67;;;19.40;55.90;;;;;;5033647;28;20375;-58
2024/03/19 03:10:52;;;;;;;2.80;1.98;;;19.30;55.90;;;;;;5033492;28;20083;-57
2024/03/19 03:13:17;;;;;;;1.42;1.27;;;19.30;56.60;;;;;;5032099;28;20693;-57
2024/03/19 03:15:43;;;;;;;2.42;1.75;;;19.30;56.10;;;;;;5026765;28;20678;-56
2024/03/19 03:18:09;;;;;;;2.88;1.38;;;19.20;56.10;;;;;;5036965;28;20056;-57
2024/03/19 03:20:34;;;;;;;2.22;1.60;;;19.20;56.20;;;;;;5037961;28;20098;-58
2024/03/19 03:23:00;;;;;;;1.77;1.52;;;19.20;56.30;;;;;;5036721;28;20104;-58
2024/03/19 03:25:26;;;;;;;2.30;1.52;;;19.20;56.30;;;;;;5036436;28;20100;-57
2024/03/19 03:27:52;;;;;;;2.00;1.60;;;19.10;56.40;;;;;;5040700;28;20049;-58
2024/03/19 03:30:18;;;;;;;1.75;1.50;;;19.10;56.50;;;;;;5039354;28;20036;-56
2024/03/19 03:32:47;;;;;;;1.88;1.63;;;19.10;56.50;;;;;;5038834;28;20029;-57
2024/03/19 03:35:13;;;;;;;2.40;1.65;;;19.00;56.60;;;;;;5040113;28;20044;-56
2024/03/19 03:37:39;;;;;;;2.30;1.40;;;19.00;56.60;;;;;;5042057;28;20033;-57
2024/03/19 03:40:16;;;;;;;1.63;1.30;;;19.00;56.70;;;;;;5039415;28;20490;-56
2024/03/19 03:42:42;;;;;;;2.50;1.80;;;19.00;56.70;;;;;;5039722;28;20450;-58
2024/03/19 03:45:10;;;;;;;1.70;1.45;;;19.00;56.70;;;;;;5040960;28;20108;-56
2024/03/19 03:47:36;;;;;;;2.25;1.48;;;19.00;56.80;;;;;;5039137;28;20099;-56
2024/03/19 03:50:01;;;;;;;1.90;1.38;;;18.90;56.80;;;;;;5039219;28;20033;-59
2024/03/19 03:52:29;;;;;;;1.90;1.67;;;18.90;56.90;;;;;;5037143;28;20425;-57
2024/03/19 03:54:55;;;;;;;2.20;1.70;;;18.90;56.90;;;;;;5044506;28;20048;-57
2024/03/19 03:57:20;;;;;;;2.83;2.20;;;18.90;57.00;;;;;;5046513;28;20509;-58
2024/03/19 03:59:46;;;;;;;2.03;1.83;;;18.90;57.00;;;;;;5039631;28;20491;-55
2024/03/19 04:02:11;;;;;;;1.80;1.33;;;18.80;56.90;;;;;;5031411;28;20029;-58
2024/03/19 04:04:37;;;;;;;1.65;1.38;;;18.80;57.00;;;;;;5034559;28;20034;-58
2024/03/19 04:07:02;;;;;;;1.45;1.20;;;18.80;57.10;;;;;;5034045;28;20056;-55
2024/03/19 04:09:28;;;;;;;2.25;1.90;;;18.80;57.10;;;;;;5035626;28;20438;-57
2024/03/19 04:11:53;;;;;;;1.92;1.40;;;18.80;57.10;;;;;;5034058;28;20783;-58
2024/03/19 04:14:19;;;;;;;1.65;1.50;;;18.80;57.10;;;;;;5036920;28;20078;-56
2024/03/19 04:16:44;;;;;;;2.60;1.77;;;18.80;57.10;;;;;;5034574;28;20021;-60
2024/03/19 04:19:10;;;;;;;2.00;1.45;;;18.70;57.10;;;;;;5036174;28;20631;-57
2024/03/19 04:21:35;;;;;;;1.80;1.50;;;18.70;57.10;;;;;;5038141;28;20363;-57
2024/03/19 04:24:01;;;;;;;1.48;1.35;;;18.70;57.10;;;;;;5035372;28;20021;-58
2024/03/19 04:26:28;;;;;;;4.43;2.10;;;18.70;57.10;;;;;;5035622;28;20025;-58
2024/03/19 04:28:54;;;;;;;1.88;1.77;;;18.70;57.10;;;;;;5039205;28;20083;-56
2024/03/19 04:31:20;;;;;;;1.65;1.48;;;18.70;57.10;;;;;;5038799;28;20023;-56
2024/03/19 04:33:45;;;;;;;1.83;1.48;;;18.70;57.10;;;;;;5045940;28;20025;-57
2024/03/19 04:36:11;;;;;;;1.60;1.42;;;18.70;57.20;;;;;;5040729;28;20071;-57
2024/03/19 04:38:37;;;;;;;2.08;1.40;;;18.70;57.10;;;;;;5038303;28;20065;-55
2024/03/19 04:41:02;;;;;;;2.38;1.52;;;18.70;57.10;;;;;;5039392;28;20072;-56
2024/03/19 04:43:28;;;;;;;1.60;1.50;;;18.70;57.10;;;;;;5036699;28;20028;-56
2024/03/19 04:45:53;;;;;;;2.10;1.70;;;18.70;57.10;;;;;;5039233;28;20104;-57
2024/03/19 04:48:18;;;;;;;1.80;1.58;;;18.70;57.20;;;;;;5040020;28;20163;-56
2024/03/19 04:50:44;;;;;;;2.33;1.92;;;18.70;57.10;;;;;;5037920;28;20037;-65
2024/03/19 04:53:09;;;;;;;2.05;1.80;;;18.70;57.20;;;;;;5040597;28;20029;-56
2024/03/19 04:55:35;;;;;;;1.95;1.50;;;18.60;57.10;;;;;;5034148;28;20486;-56
2024/03/19 04:58:00;;;;;;;2.30;1.80;;;18.60;57.10;;;;;;5034407;28;20029;-58
2024/03/19 05:00:26;;;;;;;1.65;1.50;;;18.60;57.10;;;;;;5038864;28;20120;-58
2024/03/19 05:02:51;;;;;;;1.83;1.60;;;18.60;57.10;;;;;;5037815;28;20060;-57
2024/03/19 05:05:17;;;;;;;2.05;1.40;;;18.60;56.90;;;;;;5030840;28;20035;-57
2024/03/19 05:07:43;;;;;;;2.15;1.80;;;18.70;57.00;;;;;;5037901;28;20107;-56
2024/03/19 05:10:09;;;;;;;2.25;1.63;;;18.60;57.00;;;;;;5038357;28;20445;-56
2024/03/19 05:12:35;;;;;;;1.92;1.50;;;18.60;57.00;;;;;;5034927;28;20037;-57
2024/03/19 05:15:01;;;;;;;1.83;1.67;;;18.60;56.90;;;;;;5034692;28;20032;-57
2024/03/19 05:17:26;;;;;;;1.65;1.55;;;18.60;56.90;;;;;;5038031;28;20032;-56
2024/03/19 05:19:52;;;;;;;1.65;1.55;;;18.60;56.90;;;;;;5038819;28;20399;-56
2024/03/19 05:22:17;;;;;;;2.03;1.30;;;18.70;57.00;;;;;;5039871;28;20187;-55
2024/03/19 05:24:43;;;;;;;1.88;1.58;;;18.70;56.90;;;;;;5036375;28;20497;-58
2024/03/19 05:27:08;;;;;;;2.10;1.60;;;18.70;56.90;;;;;;5038117;28;20036;-57
2024/03/19 05:29:34;;;;;;;2.22;1.80;;;18.70;56.80;;;;;;5036362;28;20063;-56
2024/03/19 05:32:00;;;;;;;2.13;1.60;;;18.70;56.70;;;;;;5039168;28;20032;-55
2024/03/19 05:34:26;;;;;;;2.08;1.88;;;18.70;56.60;;;;;;5037550;28;20036;-55
2024/03/19 05:36:51;;;;;;;2.95;1.33;;;18.70;56.70;;;;;;5039915;28;20033;-57
2024/03/19 05:39:17;;;;;;;1.65;1.50;;;18.80;56.70;;;;;;5037909;28;20051;-56
2024/03/19 05:41:42;;;;;;;1.70;1.50;;;18.70;56.60;;;;;;5039480;28;20036;-56
2024/03/19 05:44:09;;;;;;;2.10;1.60;;;18.80;56.60;;;;;;5039398;28;20190;-58
2024/03/19 05:46:34;;;;;;;1.70;1.60;;;18.80;56.70;;;;;;5032524;28;20028;-57
2024/03/19 05:49:00;;;;;;;2.40;1.85;;;18.80;56.70;;;;;;5038110;28;20072;-56
2024/03/19 05:51:25;;;;;;;2.05;1.85;;;18.80;56.60;;;;;;5034095;28;20029;-56
2024/03/19 05:53:51;;;;;;;1.40;1.25;;;18.80;56.50;;;;;;5035914;28;20056;-57
2024/03/19 05:56:16;;;;;;;2.70;1.70;;;18.80;56.40;;;;;;5031679;28;20618;-56
2024/03/19 05:58:42;;;;;;;1.85;1.55;;;18.80;56.50;;;;;;5035361;28;20036;-56
2024/03/19 06:01:07;;;;;;;1.55;1.30;;;18.80;56.50;;;;;;5039997;28;20037;-58
2024/03/19 06:03:33;;;;;;;1.60;1.27;;;18.90;56.50;;;;;;5037751;28;20567;-58
2024/03/19 06:06:01;;;;;;;1.70;1.60;;;18.90;56.50;;;;;;5036348;28;20037;-57
2024/03/19 06:08:27;;;;;;;1.92;1.70;;;18.90;56.40;;;;;;5036815;28;20028;-56
2024/03/19 06:10:53;;;;;;;1.63;1.48;;;18.90;56.40;;;;;;5036190;28;20043;-58
2024/03/19 06:13:18;;;;;;;1.90;1.40;;;19.00;56.40;;;;;;5037665;28;20121;-59
2024/03/19 06:15:44;;;;;;;2.85;1.40;;;19.00;56.30;;;;;;5034360;28;20033;-57
2024/03/19 06:18:10;;;;;;;3.47;1.55;;;19.00;56.20;;;;;;5036516;28;20025;-58
2024/03/19 06:20:35;;;;;;;2.33;1.70;;;19.00;56.20;;;;;;5038030;28;20025;-52
2024/03/19 06:23:01;;;;;;;2.28;1.40;;;19.00;56.10;;;;;;5037896;28;20110;-58
2024/03/19 06:25:27;;;;;;;2.00;1.70;;;19.10;56.20;;;;;;5038960;28;20666;-57
2024/03/19 06:27:53;;;;;;;2.42;1.77;;;19.00;56.00;;;;;;5036358;28;20094;-52
2024/03/19 06:30:18;;;;;;;2.58;1.85;;;19.10;56.10;;;;;;5034950;28;20679;-57
2024/03/19 06:32:44;;;;;;;2.45;1.70;;;19.10;56.10;;;;;;5036736;28;20417;-52
2024/03/19 06:35:09;;;;;;;2.90;1.90;;;19.10;56.10;;;;;;5030061;28;20034;-54
2024/03/19 06:37:36;;;;;;;1.77;1.60;;;19.10;56.00;;;;;;5037142;28;20040;-54
2024/03/19 06:40:02;;;;;;;2.42;1.77;;;19.20;56.20;;;;;;5040421;28;20042;-57
2024/03/19 06:42:28;;;;;;;3.17;1.90;;;19.10;56.00;;;;;;5041698;28;20029;-57
2024/03/19 06:44:53;;;;;;;2.70;2.03;;;19.10;56.10;;;;;;5038933;28;20099;-57
2024/03/19 06:47:19;;;;;;;2.60;1.60;;;19.10;56.00;;;;;;5043173;28;20040;-57
2024/03/19 06:49:44;;;;;;;3.25;1.92;;;19.10;56.10;;;;;;5041914;28;20450;-53
2024/03/19 06:52:10;;;;;;;2.08;1.40;;;19.10;56.00;;;;;;5043993;28;20029;-56
2024/03/19 06:54:35;;;;;;;2.42;1.85;;;19.20;56.10;;;;;;5037916;28;20032;-58
2024/03/19 06:57:01;;;;;;;1.98;1.50;;;19.20;56.10;;;;;;5037110;28;20029;-53
2024/03/19 06:59:27;;;;;;;3.47;2.30;;;19.10;56.10;;;;;;5037745;28;20035;-52
2024/03/19 07:01:53;;;;;;;2.45;1.98;;;19.20;56.10;;;;;;5041265;28;20045;-53
2024/03/19 07:04:19;;;;;;;3.38;2.00;;;19.20;56.20;;;;;;5039390;28;20063;-52
2024/03/19 07:06:44;;;;;;;3.33;2.25;;;19.10;56.10;;;;;;5038839;28;20045;-54
2024/03/19 07:09:10;;;;;;;2.55;2.08;;;19.20;56.10;;;;;;5037636;28;20037;-58
2024/03/19 07:11:38;;;;;;;2.03;1.63;;;19.20;56.10;;;;;;5038731;28;20044;-53
2024/03/19 07:14:04;;;;;;;2.90;2.03;;;19.20;56.00;;;;;;5037491;28;20105;-55
2024/03/19 07:16:31;;;;;;;3.35;2.25;;;19.20;56.00;;;;;;5039613;28;20033;-56
2024/03/19 07:18:57;;;;;;;4.78;2.50;;;19.20;55.90;;;;;;5035668;28;20037;-51
2024/03/19 07:21:23;;;;;;;2.25;1.70;;;19.20;55.90;;;;;;5038025;28;20044;-53
2024/03/19 07:23:48;;;;;;;3.67;2.42;;;19.20;55.70;;;;;;5037651;28;20055;-58
2024/03/19 07:26:14;;;;;;;4.03;2.30;;;19.20;56.00;;;;;;5036353;28;20033;-59
2024/03/19 07:28:40;;;;;;;4.57;2.55;;;19.10;56.00;;;;;;5039207;28;20116;-53
2024/03/19 07:31:06;;;;;;;4.25;2.10;;;19.10;56.10;;;;;;5041047;28;20021;-52
2024/03/19 07:33:32;;;;;;;5.15;1.95;;;19.10;56.10;;;;;;5037619;28;20029;-52
2024/03/19 07:35:58;;;;;;;4.22;2.40;;;19.00;56.20;;;;;;5039427;28;20029;-52
2024/03/19 07:38:24;;;;;;;3.75;2.50;;;19.00;56.40;;;;;;5040382;28;20029;-60
2024/03/19 07:40:49;;;;;;;5.85;3.08;;;19.00;56.40;;;;;;5036044;28;20037;-51
2024/03/19 07:43:18;;;;;;;7.25;2.70;;;18.90;56.50;;;;;;5032514;28;20049;-55
2024/03/19 07:45:44;;;;;;;5.03;2.83;;;18.90;56.60;;;;;;5035036;28;20559;-54
2024/03/19 07:48:12;;;;;;;5.78;2.72;;;18.90;56.70;;;;;;5034973;28;20128;-54
2024/03/19 07:50:39;;;;;;;4.55;2.95;;;18.80;56.80;;;;;;5036022;28;20485;-57
2024/03/19 07:53:04;;;;;;;6.63;3.45;;;18.80;56.80;;;;;;5032873;28;20033;-52
2024/03/19 07:55:30;;;;;;;7.05;3.38;;;18.80;56.80;;;;;;5035412;28;20506;-55
2024/03/19 07:57:55;;;;;;;9.35;3.13;;;18.80;56.90;;;;;;5030465;28;20120;-55
2024/03/19 08:00:21;;;;;;;6.43;3.42;;;18.70;56.90;;;;;;5032582;28;20030;-55
2024/03/19 08:02:46;;;;;;;6.57;3.22;;;18.60;56.90;;;;;;5031242;28;20041;-51
2024/03/19 08:05:12;;;;;;;5.57;3.38;;;18.70;57.10;;;;;;5024920;28;20080;-53
2024/03/19 08:07:43;;;;;;;4.88;3.33;;;18.60;57.10;;;;;;5030595;28;20029;-55
2024/03/19 08:10:09;;;;;;;6.32;3.53;;;18.60;57.10;;;;;;5033530;28;20044;-56
2024/03/19 08:12:35;;;;;;;5.57;3.10;;;18.60;57.20;;;;;;5031531;28;21665;-55
2024/03/19 08:15:02;;;;;;;6.35;3.38;;;18.60;57.80;;;;;;5029801;28;20098;-56
2024/03/19 08:17:28;;;;;;;7.93;3.42;;;18.60;57.10;;;;;;5020960;28;20102;-57
2024/03/19 08:20:05;;;;;;;8.70;3.92;;;18.60;57.10;;;;;;5029639;28;20049;-57
2024/03/19 08:22:31;;;;;;;5.85;3.20;;;18.60;57.00;;;;;;5028873;28;20055;-55
2024/03/19 08:24:56;;;;;;;5.82;3.10;;;18.70;57.00;;;;;;5029953;28;20040;-56
2024/03/19 08:27:22;;;;;;;6.40;3.80;;;18.70;57.00;;;;;;5030552;28;20032;-58
2024/03/19 08:29:47;;;;;;;5.78;3.55;;;18.70;56.90;;;;;;5036255;28;20112;-55
2024/03/19 08:32:13;;;;;;;9.13;4.10;;;18.70;56.80;;;;;;5035778;28;20941;-54
2024/03/19 08:34:38;;;;;;;7.38;4.00;;;18.80;56.80;;;;;;5036113;28;20061;-57
2024/03/19 08:37:05;;;;;;;5.50;3.10;;;18.80;56.70;;;;;;5037339;28;20051;-60
2024/03/19 08:39:31;;;;;;;5.22;3.35;;;18.80;56.70;;;;;;5040282;28;20487;-54
2024/03/19 08:41:57;;;;;;;6.47;3.20;;;18.90;56.60;;;;;;5035716;28;20041;-52
2024/03/19 08:44:22;;;;;;;5.55;3.45;;;18.90;56.60;;;;;;5033534;28;22884;-55
2024/03/19 08:46:48;;;;;;;8.30;3.00;;;18.90;56.50;;;;;;5036558;28;20049;-55
2024/03/19 08:49:16;;;;;;;5.75;3.55;;;19.00;56.50;;;;;;5033418;28;20083;-58
2024/03/19 08:51:42;;;;;;;6.72;3.10;;;19.00;56.40;;;;;;5034627;28;20122;-51
2024/03/19 08:54:08;;;;;;;5.40;3.08;;;19.00;56.30;;;;;;5031967;28;20064;-54
2024/03/19 08:56:35;;;;;;;8.32;3.03;;;19.00;56.30;;;;;;5031770;28;20033;-61
2024/03/19 08:59:01;;;;;;;5.50;2.85;;;19.00;56.30;;;;;;5030731;28;20117;-56
2024/03/19 09:01:27;;;;;;;4.93;2.80;;;19.10;56.30;;;;;;5033669;28;20124;-60
2024/03/19 09:03:52;;;;;;;3.97;2.55;;;19.10;56.10;;;;;;5036482;28;20036;-56
2024/03/19 09:06:18;;;;;;;5.40;2.95;;;19.10;56.10;;;;;;5034623;28;20025;-55
2024/03/19 09:08:44;;;;;;;4.70;3.15;;;19.10;56.10;;;;;;5034910;28;20040;-62
2024/03/19 09:11:11;;;;;;;4.25;3.15;;;19.10;56.00;;;;;;5033717;28;20547;-57
2024/03/19 09:13:36;;;;;;;6.05;2.83;;;19.20;56.00;;;;;;5033365;28;20112;-55
2024/03/19 09:16:02;;;;;;;3.25;2.65;;;19.20;56.00;;;;;;5036574;28;20457;-52
2024/03/19 09:18:28;;;;;;;4.13;2.58;;;19.30;56.00;;;;;;5034426;28;20035;-54
2024/03/19 09:20:53;;;;;;;4.93;2.90;;;19.30;55.90;;;;;;5036013;28;22265;-54
2024/03/19 09:23:19;;;;;;;5.65;3.03;;;19.30;55.70;;;;;;5037587;28;20036;-56
2024/03/19 09:25:45;;;;;;;5.30;2.72;;;19.30;55.80;;;;;;5037833;28;20816;-55
2024/03/19 09:28:10;;;;;;;3.92;2.65;;;19.40;55.80;;;;;;5035689;28;20554;-52
2024/03/19 09:30:37;;;;;;;4.97;2.42;;;19.40;55.70;;;;;;5036493;28;20103;-56
2024/03/19 09:33:06;;;;;;;4.15;2.70;;;19.40;55.70;;;;;;5031710;28;20029;-54
2024/03/19 09:35:34;;;;;;;5.13;2.90;;;19.50;55.70;;;;;;5034972;28;20548;-54
2024/03/19 09:38:00;;;;;;;5.20;3.05;;;19.50;55.60;;;;;;5034765;28;20522;-59
2024/03/19 09:40:27;;;;;;;4.22;2.47;;;19.50;55.50;;;;;;5036664;28;20506;-60
2024/03/19 09:42:53;;;;;;;4.45;2.55;;;19.50;55.40;;;;;;5031606;28;20044;-54
2024/03/19 09:45:39;;;;;;;3.75;2.38;;;19.60;55.40;;;;;;5034727;28;20033;-57
2024/03/19 09:48:07;;;;;;;3.45;2.55;;;19.60;55.40;;;;;;5019973;28;20037;-56
2024/03/19 09:50:34;;;;;;;4.25;2.70;;;19.60;55.30;;;;;;5030854;28;20611;-54
2024/03/19 09:52:59;;;;;;;5.53;2.45;;;19.60;55.40;;;;;;5030726;28;20146;-53
2024/03/19 09:55:26;;;;;;;5.65;2.92;;;19.70;55.40;;;;;;5037451;28;20048;-55
2024/03/19 09:57:58;;;;;;;4.63;2.42;;;19.70;55.30;;;;;;5037447;28;20032;-60
2024/03/19 10:00:26;;;;;;;6.13;2.25;;;19.70;55.40;;;;;;5030155;28;20120;-55
2024/03/19 10:02:53;;;;;;;3.30;2.13;;;19.70;55.30;;;;;;5034459;28;20494;-54
2024/03/19 10:05:18;;;;;;;4.32;2.72;;;19.70;55.30;;;;;;5032486;28;20086;-61
2024/03/19 10:07:45;;;;;;;3.15;2.33;;;19.70;55.40;;;;;;5033483;28;20042;-57
2024/03/19 10:10:15;;;;;;;4.22;2.60;;;19.70;55.40;;;;;;5030637;28;20100;-54
2024/03/19 10:12:41;;;;;;;4.00;2.50;;;19.60;55.40;;;;;;5032283;28;20131;-57
2024/03/19 10:15:08;;;;;;;3.50;2.25;;;19.70;55.50;;;;;;5034882;28;20113;-58
2024/03/19 10:17:35;;;;;;;4.32;2.42;;;19.60;55.40;;;;;;5030924;28;20032;-54
2024/03/19 10:20:00;;;;;;;3.85;2.40;;;19.60;55.50;;;;;;5026794;28;20048;-57
2024/03/19 10:22:27;;;;;;;3.75;2.47;;;19.60;55.50;;;;;;5032975;28;20032;-58
2024/03/19 10:24:55;;;;;;;4.85;2.60;;;19.60;55.70;;;;;;5034064;28;20088;-59
2024/03/19 10:27:21;;;;;;;4.03;2.83;;;19.50;55.60;;;;;;5034071;28;20044;-58
2024/03/19 10:29:47;;;;;;;2.72;1.80;;;19.60;55.80;;;;;;5033090;28;20037;-57
2024/03/19 10:32:12;;;;;;;4.28;2.40;;;19.50;55.70;;;;;;5032894;28;20044;-57
2024/03/19 10:34:38;;;;;;;3.85;2.35;;;19.50;55.80;;;;;;5030298;28;20100;-53
2024/03/19 10:37:05;;;;;;;2.97;2.17;;;19.50;55.80;;;;;;5031472;28;20033;-56
2024/03/19 10:39:31;;;;;;;3.47;2.33;;;19.50;55.90;;;;;;4991115;22;20115;-55
2024/03/19 10:42:03;;;;;;;4.20;2.47;;;19.40;55.90;;;;;;4987620;28;20503;-57
2024/03/19 10:44:33;;;;;;;2.80;2.25;;;19.50;56.00;;;;;;4988076;28;20061;-57
2024/03/19 10:46:59;;;;;;;4.22;2.30;;;19.40;56.10;;;;;;4985796;28;20061;-59
2024/03/19 10:49:26;;;;;;;5.90;2.55;;;19.40;56.00;;;;;;4989692;28;20054;-56
2024/03/19 10:51:57;;;;;;;5.20;2.45;;;19.40;56.00;;;;;;4991737;28;20026;-55
2024/03/19 10:54:24;;;;;;;4.63;2.78;;;19.30;56.10;;;;;;4989730;28;20030;-58
2024/03/19 10:56:50;;;;;;;5.47;2.83;;;19.40;56.40;;;;;;4976548;28;20403;-57
2024/03/19 10:59:16;;;;;;;5.22;3.10;;;19.30;56.10;;;;;;4989607;28;20034;-56
2024/03/19 11:01:45;;;;;;;5.55;2.50;;;19.40;56.10;;;;;;4987365;28;20376;-59
2024/03/19 11:04:15;;;;;;;4.88;2.78;;;19.30;56.10;;;;;;4995074;28;20030;-60
2024/03/19 11:06:41;;;;;;;6.57;2.72;;;19.30;56.10;;;;;;4990480;28;20050;-58
2024/03/19 11:09:19;;;;;;;5.10;2.85;;;19.30;56.20;;;;;;4993485;28;20057;-56
2024/03/19 11:11:49;;;;;;;6.45;2.97;;;19.30;56.20;;;;;;4986785;28;20377;-56
2024/03/19 11:14:16;;;;;;;5.53;2.85;;;19.30;56.20;;;;;;4993387;28;20113;-59
2024/03/19 11:16:44;;;;;;;4.53;2.83;;;19.30;56.30;;;;;;4992605;28;20113;-57
2024/03/19 11:19:24;;;;;;;5.22;2.60;;;19.30;56.20;;;;;;4994437;28;20029;-57
2024/03/19 11:21:54;;;;;;;6.30;3.13;;;19.30;56.30;;;;;;4992553;28;20550;-56
2024/03/19 11:24:24;;;;;;;8.35;3.38;;;19.30;56.30;;;;;;4992051;28;20092;-56
2024/03/19 11:26:53;;;;;;;4.93;2.97;;;19.30;56.30;;;;;;4992108;28;20050;-57
2024/03/19 11:29:18;;;;;;;5.22;3.17;;;19.30;56.30;;;;;;4994932;28;20038;-57
2024/03/19 11:31:44;;;;;;;4.95;2.85;;;19.30;56.30;;;;;;4992786;28;20129;-55
2024/03/19 11:34:17;;;;;;;4.55;3.10;;;19.30;56.30;;;;;;4976508;28;20034;-55
2024/03/19 11:36:46;;;;;;;7.22;3.50;;;19.30;56.30;;;;;;4995297;28;20029;-59
2024/03/19 11:39:12;;;;;;;4.00;2.55;;;19.20;56.30;;;;;;4990137;28;20074;-56
2024/03/19 11:41:37;;;;;;;5.43;2.60;;;19.20;56.30;;;;;;4973704;28;20049;-57
2024/03/19 11:44:03;;;;;;;5.43;3.03;;;19.30;56.40;;;;;;4994451;28;20030;-57
2024/03/19 11:46:29;;;;;;;5.40;2.92;;;19.20;56.40;;;;;;4993063;28;20034;-58
2024/03/19 11:48:54;;;;;;;6.78;3.10;;;19.20;56.40;;;;;;4996640;28;20061;-56
2024/03/19 11:51:20;;;;;;;3.90;2.70;;;19.20;56.40;;;;;;4991231;28;20503;-57
2024/03/19 11:53:46;;;;;;;5.82;3.13;;;19.20;56.40;;;;;;4989914;28;20022;-57
2024/03/19 11:56:12;;;;;;;5.22;2.83;;;19.20;56.40;;;;;;4993615;28;20038;-56
2024/03/19 11:58:39;;;;;;;4.45;2.63;;;19.20;56.40;;;;;;4992669;28;20037;-56
2024/03/19 12:01:10;;;;;;;6.47;3.25;;;19.20;56.40;;;;;;4995498;28;20034;-58
2024/03/19 12:03:36;;;;;;;5.15;3.22;;;19.20;56.50;;;;;;4992476;28;20027;-64
2024/03/19 12:06:05;;;;;;;5.70;2.90;;;19.20;56.50;;;;;;4983217;28;20062;-56
2024/03/19 12:08:30;;;;;;;3.97;2.95;;;19.20;56.50;;;;;;4991693;28;20037;-57
2024/03/19 12:11:05;;;;;;;5.78;2.72;;;19.20;56.50;;;;;;4978812;28;20038;-58
2024/03/19 12:13:31;;;;;;;5.75;3.05;;;19.20;56.50;;;;;;4991409;28;20161;-57
2024/03/19 12:15:57;;;;;;;4.07;2.55;;;19.20;56.50;;;;;;4994963;28;20119;-58
2024/03/19 12:18:23;;;;;;;5.30;2.90;;;19.20;56.50;;;;;;4990019;28;20062;-55
2024/03/19 12:20:48;;;;;;;5.45;3.15;;;19.20;56.50;;;;;;4994691;28;20037;-56
2024/03/19 12:23:14;;;;;;;4.15;2.53;;;19.20;56.50;;;;;;4991574;28;20605;-58
2024/03/19 12:25:40;;;;;;;4.72;3.00;;;19.20;56.50;;;;;;4997483;28;20028;-57
2024/03/19 12:28:07;;;;;;;3.78;2.63;;;19.20;56.50;;;;;;4988285;28;20496;-56
2024/03/19 12:30:33;;;;;;;4.32;2.47;;;19.20;56.50;;;;;;4997274;28;20031;-56
2024/03/19 12:33:27;;;;;;;5.95;2.85;;;19.20;56.50;;;;;;4994403;28;20034;-56
2024/03/19 12:35:47;;;;;;;3.95;2.88;;;19.20;56.50;;;;;;4996458;28;20033;-58
2024/03/19 12:38:13;;;;;;;5.80;3.25;;;19.20;56.50;;;;;;4991146;28;20042;-55
2024/03/19 12:40:42;;;;;;;4.60;3.15;;;19.20;56.50;;;;;;4993446;28;20042;-57
2024/03/19 12:43:08;;;;;;;5.28;2.83;;;19.20;56.50;;;;;;4988039;28;20117;-57